createdAt,value
2023-04-24T00:00:18.646Z,49.80
2023-04-24T00:02:58.258Z,49.60
2023-04-24T00:05:33.859Z,48.00
2023-04-24T00:08:08.843Z,47.90
2023-04-24T00:10:43.820Z,47.20
2023-04-24T00:13:18.722Z,46.90
2023-04-24T00:15:53.571Z,47.00
2023-04-24T00:18:28.444Z,47.00
2023-04-24T00:21:03.859Z,46.40
2023-04-24T00:23:38.717Z,45.20
2023-04-24T00:26:16.090Z,44.30
2023-04-24T00:28:51.040Z,44.20
2023-04-24T00:31:26.023Z,43.70
2023-04-24T00:34:00.910Z,43.60
2023-04-24T00:36:36.159Z,43.60
2023-04-24T00:39:11.083Z,43.90
2023-04-24T00:41:47.212Z,43.20
2023-04-24T00:44:22.302Z,43.30
2023-04-24T00:46:57.678Z,43.60
2023-04-24T00:49:32.654Z,43.50
2023-04-24T00:52:09.769Z,43.30
2023-04-24T00:54:48.941Z,43.20
2023-04-24T00:57:24.660Z,43.40
2023-04-24T00:59:59.644Z,43.80
2023-04-24T01:02:35.626Z,44.00
2023-04-24T01:05:11.125Z,43.80
2023-04-24T01:07:49.264Z,42.90
2023-04-24T01:10:26.528Z,42.70
2023-04-24T01:13:01.551Z,42.70
2023-04-24T01:15:36.934Z,42.80
2023-04-24T01:18:11.875Z,43.00
2023-04-24T01:20:47.830Z,42.40
2023-04-24T01:23:22.790Z,42.10
2023-04-24T01:25:59.611Z,42.10
2023-04-24T01:28:34.641Z,42.70
2023-04-24T01:31:09.753Z,42.80
2023-04-24T01:33:44.687Z,42.60
2023-04-24T01:36:20.141Z,42.60
2023-04-24T01:38:55.094Z,42.90
2023-04-24T01:41:31.148Z,42.80
2023-04-24T01:44:06.159Z,43.40
2023-04-24T01:46:41.215Z,43.40
2023-04-24T01:49:16.560Z,43.40
2023-04-24T01:51:51.425Z,43.70
2023-04-24T01:54:26.420Z,43.40
2023-04-24T01:57:03.002Z,43.50
2023-04-24T01:59:38.150Z,43.20
2023-04-24T02:02:13.134Z,43.50
2023-04-24T02:04:48.182Z,43.40
2023-04-24T02:07:23.581Z,43.70
2023-04-24T02:09:58.661Z,44.10
2023-04-24T02:12:33.940Z,44.10
2023-04-24T02:15:09.355Z,44.50
2023-04-24T02:17:45.970Z,44.70
2023-04-24T02:20:20.922Z,45.10
2023-04-24T02:22:56.116Z,45.30
2023-04-24T02:25:31.094Z,45.30
2023-04-24T02:28:06.167Z,45.30
2023-04-24T02:30:42.708Z,45.00
2023-04-24T02:33:17.682Z,45.20
2023-04-24T02:35:52.592Z,44.80
2023-04-24T02:38:27.634Z,45.20
2023-04-24T02:41:03.148Z,44.60
2023-04-24T02:43:38.116Z,44.00
2023-04-24T02:46:13.107Z,43.90
2023-04-24T02:48:48.095Z,45.40
2023-04-24T02:51:23.062Z,46.30
2023-04-24T02:53:58.040Z,48.10
2023-04-24T02:56:33.009Z,48.90
2023-04-24T02:59:08.842Z,50.30
2023-04-24T03:01:43.955Z,52.30
2023-04-24T03:04:21.400Z,53.40
2023-04-24T03:06:57.361Z,53.90
2023-04-24T03:09:32.318Z,55.00
2023-04-24T03:12:07.692Z,56.30
2023-04-24T03:14:42.573Z,56.50
2023-04-24T03:17:17.542Z,56.20
2023-04-24T03:19:52.769Z,56.00
2023-04-24T03:22:27.641Z,56.10
2023-04-24T03:25:03.154Z,56.30
2023-04-24T03:27:40.358Z,56.50
2023-04-24T03:30:32.573Z,56.70
2023-04-24T03:33:09.218Z,56.80
2023-04-24T03:35:47.375Z,56.90
2023-04-24T03:38:22.280Z,57.40
2023-04-24T03:41:07.723Z,57.10
2023-04-24T03:43:48.107Z,57.30
2023-04-24T03:46:24.005Z,57.40
2023-04-24T03:49:03.188Z,57.90
2023-04-24T03:51:42.213Z,57.80
2023-04-24T03:54:25.182Z,58.60
2023-04-24T03:57:02.430Z,58.80
2023-04-24T03:59:39.810Z,59.00
2023-04-24T04:02:24.069Z,59.40
2023-04-24T04:04:59.410Z,59.10
2023-04-24T04:07:35.524Z,59.60
2023-04-24T04:10:11.126Z,59.40
2023-04-24T04:12:46.225Z,59.40
2023-04-24T04:15:21.204Z,59.70
2023-04-24T04:17:58.335Z,59.60
2023-04-24T04:20:33.254Z,59.30
2023-04-24T04:23:08.399Z,58.70
2023-04-24T04:25:54.048Z,58.30
2023-04-24T04:28:33.378Z,59.40
2023-04-24T04:31:08.878Z,61.50
2023-04-24T04:33:44.070Z,63.50
2023-04-24T04:36:20.518Z,60.00
2023-04-24T04:39:01.253Z,58.40
2023-04-24T04:41:55.477Z,57.60
2023-04-24T04:44:37.110Z,56.90
2023-04-24T04:47:14.010Z,55.70
2023-04-24T04:49:52.657Z,55.00
2023-04-24T04:52:31.433Z,54.50
2023-04-24T04:55:16.109Z,53.90
2023-04-24T04:58:30.512Z,50.80
2023-04-24T05:01:08.156Z,49.70
2023-04-24T05:03:48.758Z,47.20
2023-04-24T05:06:26.187Z,48.40
2023-04-24T05:09:04.475Z,46.90
2023-04-24T05:11:46.983Z,47.40
2023-04-24T05:14:22.823Z,47.70
2023-04-24T05:16:58.432Z,47.80
2023-04-24T05:19:36.969Z,48.60
2023-04-24T05:22:12.636Z,48.30
2023-04-24T05:24:56.557Z,47.90
2023-04-24T05:27:37.288Z,47.20
2023-04-24T05:30:18.355Z,47.80
2023-04-24T05:32:55.326Z,47.10
2023-04-24T05:35:33.282Z,47.30
2023-04-24T05:38:20.902Z,47.60
2023-04-24T05:40:56.031Z,47.40
2023-04-24T05:43:31.512Z,47.70
2023-04-24T05:46:08.695Z,47.70
2023-04-24T05:48:45.409Z,46.60
2023-04-24T05:51:21.483Z,45.90
2023-04-24T05:53:57.685Z,46.20
2023-04-24T05:56:35.245Z,45.50
2023-04-24T05:59:13.202Z,46.70
2023-04-24T06:01:51.160Z,47.90
2023-04-24T06:04:30.159Z,48.20
2023-04-24T06:07:07.553Z,48.00
2023-04-24T06:09:43.923Z,47.30
2023-04-24T06:12:20.633Z,45.70
2023-04-24T06:15:06.923Z,46.00
2023-04-24T06:17:59.859Z,45.40
2023-04-24T06:20:37.218Z,46.20
2023-04-24T06:23:12.275Z,46.50
2023-04-24T06:25:48.504Z,47.10
2023-04-24T06:28:24.102Z,47.00
2023-04-24T06:31:00.855Z,47.10
2023-04-24T06:33:36.028Z,46.80
2023-04-24T06:36:11.512Z,46.20
2023-04-24T06:38:47.553Z,44.10
2023-04-24T06:41:22.591Z,42.90
2023-04-24T06:44:01.037Z,42.10
2023-04-24T06:46:36.105Z,41.20
2023-04-24T06:49:13.088Z,39.50
2023-04-24T06:51:49.780Z,39.30
2023-04-24T06:54:24.755Z,38.30
2023-04-24T06:57:01.857Z,38.20
2023-04-24T06:59:37.946Z,37.60
2023-04-24T07:02:13.092Z,37.10
2023-04-24T07:04:50.085Z,37.30
2023-04-24T07:07:26.319Z,36.50
2023-04-24T07:10:01.757Z,36.10
2023-04-24T07:12:39.758Z,36.60
2023-04-24T07:15:14.763Z,36.20
2023-04-24T07:17:51.307Z,35.40
2023-04-24T07:20:27.240Z,34.90
2023-04-24T07:23:03.784Z,35.80
2023-04-24T07:25:41.119Z,35.60
2023-04-24T07:28:16.499Z,35.20
2023-04-24T07:30:56.460Z,34.80
2023-04-24T07:33:33.021Z,33.40
2023-04-24T07:36:08.321Z,33.90
2023-04-24T07:38:45.331Z,33.20
2023-04-24T07:41:23.585Z,33.00
2023-04-24T07:44:00.288Z,32.60
2023-04-24T07:46:36.218Z,32.80
2023-04-24T07:49:14.213Z,32.30
2023-04-24T07:51:51.227Z,32.90
2023-04-24T07:54:27.132Z,32.10
2023-04-24T07:57:02.846Z,31.40
2023-04-24T07:59:39.135Z,31.00
2023-04-24T08:02:15.797Z,30.10
2023-04-24T08:04:51.098Z,30.30
2023-04-24T08:07:27.171Z,30.40
2023-04-24T08:10:02.887Z,30.00
2023-04-24T08:12:39.166Z,29.80
2023-04-24T08:15:14.111Z,30.00
2023-04-24T08:17:51.642Z,30.00
2023-04-24T08:20:26.840Z,30.60
2023-04-24T08:23:02.339Z,30.30
2023-04-24T08:25:37.277Z,30.30
2023-04-24T08:28:12.323Z,30.90
2023-04-24T08:30:48.710Z,31.10
2023-04-24T08:33:27.010Z,31.20
2023-04-24T08:36:04.986Z,30.70
2023-04-24T08:38:42.665Z,30.50
2023-04-24T08:41:20.083Z,30.20
2023-04-24T08:43:56.145Z,30.00
2023-04-24T08:46:32.044Z,30.00
2023-04-24T08:49:07.194Z,30.10
2023-04-24T08:51:42.776Z,30.00
2023-04-24T08:54:18.338Z,30.00
2023-04-24T08:56:55.739Z,30.60
2023-04-24T08:59:32.613Z,30.10
2023-04-24T09:02:12.732Z,29.80
2023-04-24T09:04:50.697Z,30.00
2023-04-24T09:07:30.511Z,29.80
2023-04-24T09:10:09.059Z,29.70
2023-04-24T09:12:46.416Z,29.70
2023-04-24T09:15:21.520Z,29.20
2023-04-24T09:17:57.446Z,29.70
2023-04-24T09:20:37.032Z,29.40
2023-04-24T09:23:17.196Z,29.20
2023-04-24T09:25:56.829Z,29.90
2023-04-24T09:28:36.439Z,32.60
2023-04-24T09:31:24.235Z,34.40
2023-04-24T09:34:09.135Z,33.90
2023-04-24T09:36:44.482Z,32.70
2023-04-24T09:39:22.879Z,32.00
2023-04-24T09:41:58.815Z,31.60
2023-04-24T09:44:35.880Z,31.30
2023-04-24T09:47:13.778Z,30.90
2023-04-24T09:49:49.365Z,31.40
2023-04-24T09:52:26.179Z,30.70
2023-04-24T09:55:01.318Z,30.60
2023-04-24T09:57:37.320Z,30.40
2023-04-24T10:00:13.200Z,30.10
2023-04-24T10:02:52.336Z,29.50
2023-04-24T10:05:35.291Z,29.90
2023-04-24T10:08:15.426Z,29.80
2023-04-24T10:10:54.514Z,29.60
2023-04-24T10:13:30.537Z,29.70
2023-04-24T10:16:06.082Z,29.60
2023-04-24T10:18:42.468Z,29.60
2023-04-24T10:22:30.877Z,28.90
2023-04-24T10:25:08.553Z,28.40
2023-04-24T10:27:45.960Z,28.10
2023-04-24T10:30:21.964Z,28.10
2023-04-24T10:33:01.186Z,28.20
2023-04-24T10:35:45.640Z,27.50
2023-04-24T10:38:27.836Z,27.60
2023-04-24T10:41:18.752Z,27.70
2023-04-24T10:44:08.250Z,27.30
2023-04-24T10:46:47.979Z,27.30
2023-04-24T10:49:32.676Z,27.30
2023-04-24T10:52:10.493Z,27.80
2023-04-24T10:54:48.678Z,27.70
2023-04-24T10:57:31.842Z,27.80
2023-04-24T11:00:20.981Z,27.90
2023-04-24T11:02:58.872Z,27.80
2023-04-24T11:05:54.550Z,27.50
2023-04-24T11:08:37.739Z,27.60
2023-04-24T11:11:18.585Z,27.80
2023-04-24T11:13:56.815Z,27.90
2023-04-24T11:16:42.203Z,28.00
2023-04-24T11:19:29.633Z,28.40
2023-04-24T11:22:17.947Z,28.20
2023-04-24T11:24:54.819Z,28.00
2023-04-24T11:27:45.472Z,28.10
2023-04-24T11:30:22.063Z,28.10
2023-04-24T11:33:08.841Z,28.00
2023-04-24T11:35:45.049Z,27.90
2023-04-24T11:38:24.619Z,27.60
2023-04-24T11:41:04.302Z,27.40
2023-04-24T11:43:41.676Z,27.40
2023-04-24T11:46:18.633Z,27.50
2023-04-24T11:48:54.896Z,27.30
2023-04-24T11:51:40.609Z,27.30
2023-04-24T11:54:29.691Z,27.50
2023-04-24T11:57:07.586Z,28.00
2023-04-24T11:59:43.692Z,28.00
2023-04-24T12:02:28.257Z,28.00
2023-04-24T12:05:05.368Z,27.80
2023-04-24T12:07:45.693Z,27.50
2023-04-24T12:10:23.554Z,27.10
2023-04-24T12:13:01.489Z,27.00
2023-04-24T12:15:41.524Z,27.30
2023-04-24T12:18:24.600Z,27.50
2023-04-24T12:21:27.363Z,27.40
2023-04-24T12:24:07.506Z,27.70
2023-04-24T12:26:44.458Z,28.00
2023-04-24T12:29:24.000Z,27.90
2023-04-24T12:32:03.811Z,28.20
2023-04-24T12:34:40.958Z,27.90
2023-04-24T12:37:16.929Z,27.80
2023-04-24T12:40:23.116Z,27.80
2023-04-24T12:43:00.367Z,27.60
2023-04-24T12:45:36.768Z,27.70
2023-04-24T12:48:15.062Z,28.30
2023-04-24T12:50:51.404Z,28.30
2023-04-24T12:53:30.390Z,28.00
2023-04-24T12:56:10.032Z,27.80
2023-04-24T12:58:45.981Z,27.80
2023-04-24T13:01:22.027Z,27.90
2023-04-24T13:03:58.919Z,28.60
2023-04-24T13:06:36.788Z,30.00
2023-04-24T13:09:12.733Z,30.40
2023-04-24T13:11:48.832Z,30.00
2023-04-24T13:14:25.843Z,30.00
2023-04-24T13:17:05.880Z,29.90
2023-04-24T13:19:44.001Z,29.60
2023-04-24T13:22:22.037Z,29.80
2023-04-24T13:24:59.101Z,29.00
2023-04-24T13:27:36.114Z,29.00
2023-04-24T13:30:13.441Z,29.00
2023-04-24T13:32:49.524Z,28.80
2023-04-24T13:35:26.943Z,29.00
2023-04-24T13:38:06.943Z,29.00
2023-04-24T13:40:44.004Z,29.00
2023-04-24T13:43:19.986Z,29.20
2023-04-24T13:45:57.102Z,28.80
2023-04-24T13:48:34.250Z,29.10
2023-04-24T13:51:10.909Z,29.00
2023-04-24T13:53:46.944Z,29.00
2023-04-24T13:56:25.821Z,29.00
2023-04-24T13:59:03.192Z,29.40
2023-04-24T14:01:41.501Z,29.70
2023-04-24T14:04:18.259Z,29.70
2023-04-24T14:06:57.050Z,29.70
2023-04-24T14:09:33.672Z,29.40
2023-04-24T14:12:11.295Z,29.10
2023-04-24T14:14:49.190Z,28.40
2023-04-24T14:17:25.114Z,28.30
2023-04-24T14:20:01.970Z,28.10
2023-04-24T14:22:37.905Z,28.20
2023-04-24T14:25:13.782Z,28.30
2023-04-24T14:27:49.640Z,28.50
2023-04-24T14:30:25.645Z,28.60
2023-04-24T14:33:02.125Z,28.40
2023-04-24T14:35:38.115Z,28.30
2023-04-24T14:38:14.068Z,28.40
2023-04-24T14:43:30.090Z,27.90
2023-04-24T14:46:06.728Z,27.70
2023-04-24T14:48:42.637Z,27.50
2023-04-24T14:51:19.913Z,27.60
2023-04-24T14:53:57.529Z,27.80
2023-04-24T14:56:34.081Z,27.70
2023-04-24T14:59:10.080Z,27.90
2023-04-24T15:01:46.434Z,28.20
2023-04-24T15:04:22.806Z,28.00
2023-04-24T15:06:58.923Z,28.30
2023-04-24T15:09:35.256Z,27.90
2023-04-24T15:12:13.436Z,28.10
2023-04-24T15:14:50.652Z,28.00
2023-04-24T15:17:27.520Z,28.00
2023-04-24T15:20:05.066Z,28.10
2023-04-24T15:22:43.352Z,27.70
2023-04-24T15:25:21.166Z,28.20
2023-04-24T15:28:00.114Z,28.20
2023-04-24T15:30:38.212Z,28.40
2023-04-24T15:33:14.358Z,28.70
2023-04-24T15:35:50.431Z,29.30
2023-04-24T15:38:26.678Z,29.10
2023-04-24T15:41:02.992Z,29.40
2023-04-24T15:43:39.789Z,29.50
2023-04-24T15:46:16.276Z,29.60
2023-04-24T15:48:53.434Z,29.60
2023-04-24T15:51:30.209Z,29.60
2023-04-24T15:54:06.967Z,29.60
2023-04-24T15:56:42.906Z,29.40
2023-04-24T15:59:19.190Z,29.40
2023-04-24T16:01:55.966Z,29.60
2023-04-24T16:04:32.013Z,29.70
2023-04-24T16:07:08.945Z,29.20
2023-04-24T16:09:45.301Z,29.10
2023-04-24T16:12:23.257Z,29.00
2023-04-24T16:14:59.227Z,28.80
2023-04-24T16:17:36.043Z,28.60
2023-04-24T16:20:13.178Z,28.70
2023-04-24T16:22:49.077Z,29.00
2023-04-24T16:25:24.982Z,29.00
2023-04-24T16:28:00.967Z,28.70
2023-04-24T16:30:36.982Z,28.40
2023-04-24T16:33:13.152Z,27.60
2023-04-24T16:35:49.232Z,27.00
2023-04-24T16:38:26.490Z,26.20
2023-04-24T16:41:03.042Z,25.70
2023-04-24T16:43:38.903Z,26.00
2023-04-24T16:46:16.309Z,25.80
2023-04-24T16:48:55.279Z,26.10
2023-04-24T16:51:35.547Z,26.50
2023-04-24T16:54:11.415Z,26.60
2023-04-24T16:56:47.341Z,26.60
2023-04-24T16:59:26.203Z,26.40
2023-04-24T17:02:04.108Z,26.30
2023-04-24T17:04:41.998Z,27.00
2023-04-24T17:07:17.936Z,26.90
2023-04-24T17:09:53.801Z,26.90
2023-04-24T17:12:29.955Z,27.20
2023-04-24T17:15:06.977Z,26.90
2023-04-24T17:17:44.322Z,25.90
2023-04-24T17:20:23.910Z,26.40
2023-04-24T17:23:00.984Z,26.40
2023-04-24T17:25:37.263Z,26.40
2023-04-24T17:28:30.156Z,26.70
2023-04-24T17:31:06.086Z,26.50
2023-04-24T17:33:42.086Z,26.40
2023-04-24T17:36:18.036Z,26.80
2023-04-24T17:38:55.156Z,26.50
2023-04-24T17:41:31.075Z,26.80
2023-04-24T17:44:06.979Z,26.90
2023-04-24T17:46:43.023Z,27.00
2023-04-24T17:49:19.041Z,26.90
2023-04-24T17:51:56.445Z,26.90
2023-04-24T17:54:33.372Z,27.10
2023-04-24T17:57:10.031Z,27.20
2023-04-24T17:59:47.807Z,27.40
2023-04-24T18:02:23.860Z,27.50
2023-04-24T18:05:01.321Z,27.60
2023-04-24T18:07:37.635Z,27.80
2023-04-24T18:10:15.637Z,27.90
2023-04-24T18:12:52.028Z,28.10
2023-04-24T18:15:29.304Z,28.30
2023-04-24T18:18:06.044Z,28.30
2023-04-24T18:20:43.120Z,28.50
2023-04-24T18:23:19.265Z,28.60
2023-04-24T18:25:56.075Z,28.80
2023-04-24T18:28:34.649Z,28.70
2023-04-24T18:31:10.765Z,28.90
2023-04-24T18:33:46.932Z,29.10
2023-04-24T18:36:22.813Z,29.20
2023-04-24T18:38:58.733Z,29.10
2023-04-24T18:41:36.438Z,29.30
2023-04-24T18:44:12.420Z,29.30
2023-04-24T18:46:48.425Z,29.50
2023-04-24T18:49:24.517Z,29.40
2023-04-24T18:52:01.793Z,29.50
2023-04-24T18:54:37.978Z,29.50
2023-04-24T18:57:14.220Z,29.50
2023-04-24T18:59:51.339Z,29.60
2023-04-24T19:02:27.339Z,29.70
2023-04-24T19:05:03.640Z,29.80
2023-04-24T19:07:42.134Z,30.00
2023-04-24T19:10:18.215Z,29.90
2023-04-24T19:12:56.762Z,30.00
2023-04-24T19:15:33.694Z,30.00
2023-04-24T19:18:10.236Z,30.10
2023-04-24T19:20:47.094Z,30.30
2023-04-24T19:23:24.330Z,30.40
2023-04-24T19:26:05.974Z,30.40
2023-04-24T19:28:42.113Z,30.60
2023-04-24T19:31:19.784Z,30.70
2023-04-24T19:33:56.239Z,30.70
2023-04-24T19:36:34.086Z,30.70
2023-04-24T19:39:11.145Z,30.90
2023-04-24T19:41:47.281Z,30.80
2023-04-24T19:44:25.307Z,30.90
2023-04-24T19:47:02.229Z,31.00
2023-04-24T19:49:39.863Z,31.00
2023-04-24T19:52:15.844Z,31.10
2023-04-24T19:54:52.324Z,31.00
2023-04-24T19:57:29.873Z,31.10
2023-04-24T20:00:06.885Z,31.20
2023-04-24T20:02:44.589Z,31.30
2023-04-24T20:05:20.874Z,31.20
2023-04-24T20:07:56.847Z,31.20
2023-04-24T20:10:34.647Z,31.40
2023-04-24T20:13:11.220Z,31.40
2023-04-24T20:15:47.172Z,31.50
2023-04-24T20:18:23.193Z,31.70
2023-04-24T20:20:59.996Z,31.70
2023-04-24T20:23:36.260Z,31.80
2023-04-24T20:26:12.441Z,31.90
2023-04-24T20:28:49.592Z,31.80
2023-04-24T20:31:25.830Z,32.00
2023-04-24T20:34:02.873Z,32.00
2023-04-24T20:36:38.969Z,32.10
2023-04-24T20:39:15.609Z,32.20
2023-04-24T20:41:52.137Z,32.40
2023-04-24T20:44:28.136Z,32.50
2023-04-24T20:47:04.239Z,32.60
2023-04-24T20:49:41.226Z,32.70
2023-04-24T20:52:17.198Z,32.80
2023-04-24T20:54:53.113Z,32.90
2023-04-24T20:57:29.114Z,33.10
2023-04-24T21:00:08.461Z,33.20
2023-04-24T21:02:44.469Z,33.20
2023-04-24T21:05:20.614Z,33.30
2023-04-24T21:07:56.581Z,33.40
2023-04-24T21:10:32.529Z,33.40
2023-04-24T21:13:08.986Z,33.50
2023-04-24T21:15:44.908Z,33.50
2023-04-24T21:18:21.149Z,33.70
2023-04-24T21:20:57.111Z,33.70
2023-04-24T21:23:33.027Z,33.70
2023-04-24T21:26:09.048Z,33.80
2023-04-24T21:28:45.077Z,33.90
2023-04-24T21:31:21.038Z,33.90
2023-04-24T21:33:57.087Z,34.00
2023-04-24T21:36:33.551Z,34.00
2023-04-24T21:39:10.156Z,34.10
2023-04-24T21:41:46.909Z,34.10
2023-04-24T21:44:22.849Z,34.20
2023-04-24T21:46:59.342Z,34.40
2023-04-24T21:49:35.467Z,34.50
2023-04-24T21:52:11.328Z,34.60
2023-04-24T21:54:47.279Z,34.60
2023-04-24T21:57:23.566Z,34.70
2023-04-24T21:59:59.778Z,34.80
2023-04-24T22:02:36.009Z,34.80
2023-04-24T22:05:18.372Z,34.80
2023-04-24T22:07:56.298Z,34.80
2023-04-24T22:10:32.257Z,34.70
2023-04-24T22:13:08.532Z,34.70
2023-04-24T22:15:44.406Z,34.70
2023-04-24T22:18:20.425Z,34.70
2023-04-24T22:20:56.338Z,34.60
2023-04-24T22:23:32.398Z,34.60
2023-04-24T22:26:08.321Z,34.60
2023-04-24T22:28:44.825Z,34.50
2023-04-24T22:31:23.151Z,34.50
2023-04-24T22:33:59.181Z,34.40
2023-04-24T22:36:35.319Z,34.40
2023-04-24T22:39:15.597Z,34.40
2023-04-24T22:41:51.631Z,34.40
2023-04-24T22:44:27.699Z,34.30
2023-04-24T22:47:08.248Z,34.30
2023-04-24T22:49:44.187Z,34.30
2023-04-24T22:52:21.011Z,34.30
2023-04-24T22:54:56.917Z,34.40
2023-04-24T22:57:32.938Z,34.50
2023-04-24T23:00:11.350Z,34.60
2023-04-24T23:02:47.692Z,34.60
2023-04-24T23:05:25.165Z,34.70
2023-04-24T23:08:01.199Z,34.70
2023-04-24T23:10:38.135Z,34.80
2023-04-24T23:13:14.073Z,35.20
2023-04-24T23:15:49.956Z,34.80
2023-04-24T23:18:25.993Z,34.60
2023-04-24T23:21:03.499Z,34.80
2023-04-24T23:23:39.546Z,34.20
2023-04-24T23:26:15.503Z,34.20
2023-04-24T23:28:51.625Z,34.10
2023-04-24T23:31:27.588Z,33.90
2023-04-24T23:34:03.493Z,33.80
2023-04-24T23:36:39.385Z,33.80
2023-04-24T23:39:15.646Z,33.80
2023-04-24T23:41:53.500Z,33.90
2023-04-24T23:44:30.455Z,34.20
2023-04-24T23:47:06.435Z,33.90
2023-04-24T23:49:42.425Z,34.00
2023-04-24T23:52:18.442Z,34.50
2023-04-24T23:54:54.473Z,34.30
2023-04-24T23:57:31.150Z,34.30
